Time;durP1;ratioP1;P1;durP2;ratioP2;P2;SDS_P1;SDS_P2;PMS_P1;PMS_P2;Temp;Humidity;BMP_temperature;BMP_pressure;BME280_temperature;BME280_humidity;BME280_pressure;Samples;Min_cycle;Max_cycle;Signal;HPM_P1;HPM_P2
2021/10/01 00:00:51;;;;;;;0.40;0.30;;;7.60;99.90;;;;;;4991300;28;20425;-75
2021/10/01 00:03:17;;;;;;;0.40;0.30;;;7.70;99.90;;;;;;4990283;28;20423;-76
2021/10/01 00:05:42;;;;;;;0.40;0.30;;;7.60;99.90;;;;;;4991119;28;20383;-75
2021/10/01 00:08:09;;;;;;;0.40;0.30;;;7.60;99.90;;;;;;4990772;28;20795;-76
2021/10/01 00:10:35;;;;;;;0.40;0.20;;;7.60;99.90;;;;;;4990421;28;20395;-74
2021/10/01 00:13:00;;;;;;;0.40;0.30;;;7.60;99.90;;;;;;4991226;28;20390;-75
2021/10/01 00:15:28;;;;;;;0.40;0.40;;;7.50;99.90;;;;;;4990029;28;20554;-75
2021/10/01 00:17:53;;;;;;;0.40;0.20;;;7.50;99.90;;;;;;4990745;28;20441;-75
2021/10/01 00:20:19;;;;;;;0.50;0.50;;;7.50;99.90;;;;;;4990077;28;20414;-75
2021/10/01 00:22:47;;;;;;;0.40;0.20;;;7.60;99.90;;;;;;4990247;28;20483;-76
2021/10/01 00:25:12;;;;;;;0.40;0.30;;;7.60;99.90;;;;;;4989464;28;20402;-76
2021/10/01 00:27:38;;;;;;;0.40;0.30;;;7.50;99.90;;;;;;4990567;28;20446;-75
2021/10/01 00:30:05;;;;;;;0.40;0.30;;;7.60;99.90;;;;;;4990437;28;20489;-76
2021/10/01 00:32:31;;;;;;;0.40;0.20;;;7.50;99.90;;;;;;4990088;28;20450;-76
2021/10/01 00:34:57;;;;;;;0.40;0.20;;;7.40;99.90;;;;;;4990722;28;20386;-76
2021/10/01 00:37:23;;;;;;;0.40;0.20;;;7.40;99.90;;;;;;4990124;28;20457;-76
2021/10/01 00:39:48;;;;;;;0.40;0.30;;;7.40;99.90;;;;;;4990731;28;20484;-76
2021/10/01 00:42:14;;;;;;;0.40;0.20;;;7.50;99.90;;;;;;4972247;28;20455;-76
2021/10/01 00:44:40;;;;;;;0.40;0.30;;;7.30;99.90;;;;;;4969619;28;20471;-76
2021/10/01 00:47:05;;;;;;;0.40;0.30;;;7.40;99.90;;;;;;4971091;28;20385;-75
2021/10/01 00:49:31;;;;;;;0.40;0.40;;;7.40;99.90;;;;;;4953215;28;20558;-75
2021/10/01 00:51:57;;;;;;;0.40;0.20;;;7.30;99.90;;;;;;4971055;28;20427;-76
2021/10/01 00:54:23;;;;;;;0.40;0.20;;;7.30;99.90;;;;;;4970795;28;20392;-75
2021/10/01 00:56:49;;;;;;;0.40;0.30;;;7.20;99.90;;;;;;4971498;28;20400;-76
2021/10/01 00:59:15;;;;;;;0.40;0.30;;;7.20;99.90;;;;;;4970510;28;20471;-76
2021/10/01 01:01:41;;;;;;;0.40;0.30;;;7.30;99.90;;;;;;4970990;28;20427;-76
2021/10/01 01:04:08;;;;;;;0.40;0.20;;;7.30;99.90;;;;;;4971318;28;20384;-76
2021/10/01 01:06:38;;;;;;;0.40;0.20;;;7.30;99.90;;;;;;4972061;28;20546;-75
2021/10/01 01:09:23;;;;;;;0.40;0.20;;;7.30;99.90;;;;;;4974792;28;20404;-76
2021/10/01 01:12:04;;;;;;;0.40;0.20;;;7.10;99.90;;;;;;4974541;28;20830;-75
2021/10/01 01:14:55;;;;;;;0.40;0.20;;;7.20;99.90;;;;;;4974055;28;20681;-76
2021/10/01 01:17:49;;;;;;;0.40;0.30;;;7.20;99.90;;;;;;4945305;28;20757;-76
2021/10/01 01:20:48;;;;;;;0.40;0.20;;;7.10;99.90;;;;;;4973505;28;20411;-76
2021/10/01 01:23:41;;;;;;;0.40;0.20;;;7.20;99.90;;;;;;4973637;28;20463;-76
2021/10/01 01:26:22;;;;;;;0.40;0.30;;;7.10;99.90;;;;;;4974448;28;20490;-76
2021/10/01 01:29:41;;;;;;;0.40;0.30;;;7.20;99.90;;;;;;4974586;28;20463;-75
2021/10/01 01:32:21;;;;;;;0.40;0.20;;;7.10;99.90;;;;;;4876861;29;20949;-75
2021/10/01 01:34:50;;;;;;;0.40;0.30;;;7.10;99.90;;;;;;4963096;28;20408;-75
2021/10/01 01:37:48;;;;;;;0.40;0.20;;;7.10;99.90;;;;;;4973125;28;20381;-76
2021/10/01 01:40:16;;;;;;;0.40;0.20;;;7.10;99.90;;;;;;4967046;28;20420;-76
2021/10/01 01:42:44;;;;;;;0.40;0.20;;;7.20;99.90;;;;;;4973976;28;20397;-76
2021/10/01 01:45:12;;;;;;;0.40;0.20;;;7.10;99.90;;;;;;4981363;28;20905;-75
2021/10/01 01:47:39;;;;;;;0.40;0.30;;;7.10;99.90;;;;;;4992923;28;20386;-76
2021/10/01 01:50:06;;;;;;;0.40;0.30;;;7.10;99.90;;;;;;4993522;28;20453;-76
2021/10/01 01:52:33;;;;;;;0.40;0.30;;;7.00;99.90;;;;;;4992610;28;21161;-76
2021/10/01 01:55:00;;;;;;;0.40;0.30;;;7.20;99.90;;;;;;4993071;28;20825;-76
2021/10/01 01:57:27;;;;;;;0.50;0.50;;;7.10;99.90;;;;;;4974789;28;20501;-76
2021/10/01 01:59:54;;;;;;;0.80;0.80;;;7.30;99.90;;;;;;4993269;28;20824;-76
2021/10/01 02:02:21;;;;;;;0.40;0.30;;;7.30;99.90;;;;;;4992489;28;20717;-76
2021/10/01 02:04:48;;;;;;;0.40;0.20;;;7.20;99.90;;;;;;4993235;28;20387;-76
2021/10/01 02:07:16;;;;;;;0.40;0.30;;;7.10;99.90;;;;;;4992977;28;20378;-76
2021/10/01 02:09:43;;;;;;;0.40;0.20;;;7.00;99.90;;;;;;4991945;28;20386;-76
2021/10/01 02:12:09;;;;;;;0.40;0.30;;;7.00;99.90;;;;;;4993362;28;20462;-76
2021/10/01 02:14:39;;;;;;;0.40;0.20;;;7.00;99.90;;;;;;4992314;28;20411;-76
2021/10/01 02:17:06;;;;;;;0.40;0.20;;;7.00;99.90;;;;;;4992607;28;20378;-75
2021/10/01 02:19:34;;;;;;;0.40;0.30;;;6.90;99.90;;;;;;4992142;28;20494;-76
2021/10/01 02:22:02;;;;;;;0.40;0.20;;;6.90;99.90;;;;;;4993076;28;20379;-76
2021/10/01 02:24:28;;;;;;;0.40;0.30;;;6.80;99.90;;;;;;4992229;28;20787;-75
2021/10/01 02:27:23;;;;;;;0.40;0.20;;;6.90;99.90;;;;;;4992878;28;20545;-76
2021/10/01 02:30:06;;;;;;;0.40;0.20;;;6.90;99.90;;;;;;4949660;28;20453;-75
2021/10/01 02:32:40;;;;;;;0.40;0.30;;;6.70;99.90;;;;;;4991987;28;20445;-75
2021/10/01 02:35:08;;;;;;;0.40;0.20;;;6.70;99.90;;;;;;4975348;28;20398;-76
2021/10/01 02:37:34;;;;;;;0.40;0.20;;;6.60;99.90;;;;;;4991625;28;20465;-76
2021/10/01 02:40:00;;;;;;;0.40;0.20;;;6.60;99.90;;;;;;4975381;28;20421;-75
2021/10/01 02:42:27;;;;;;;0.40;0.20;;;6.60;99.90;;;;;;4991740;28;20382;-75
2021/10/01 02:44:53;;;;;;;0.40;0.30;;;6.60;99.90;;;;;;4992299;28;20433;-75
2021/10/01 02:47:20;;;;;;;0.40;0.20;;;6.70;99.90;;;;;;4991189;28;20425;-75
2021/10/01 02:49:47;;;;;;;0.40;0.30;;;6.70;99.90;;;;;;4992522;28;20474;-75
2021/10/01 02:52:50;;;;;;;0.40;0.20;;;6.90;99.90;;;;;;4992301;28;20390;-75
2021/10/01 02:55:17;;;;;;;0.40;0.20;;;6.80;99.90;;;;;;4974945;28;20403;-76
2021/10/01 02:57:51;;;;;;;0.40;0.30;;;6.90;99.90;;;;;;4992043;28;20398;-75
2021/10/01 03:00:17;;;;;;;0.40;0.30;;;6.80;99.90;;;;;;4991648;28;20442;-76
2021/10/01 03:02:44;;;;;;;0.40;0.30;;;7.00;99.90;;;;;;4991374;28;20382;-76
2021/10/01 03:05:12;;;;;;;0.40;0.22;;;7.00;99.90;;;;;;4992010;28;20465;-75
2021/10/01 03:07:40;;;;;;;0.40;0.20;;;7.00;99.90;;;;;;4991196;28;20410;-76
2021/10/01 03:10:08;;;;;;;0.40;0.20;;;6.80;99.90;;;;;;4991962;28;20389;-76
2021/10/01 03:12:35;;;;;;;0.40;0.20;;;6.70;99.90;;;;;;4990728;28;20387;-76
2021/10/01 03:15:03;;;;;;;0.40;0.20;;;6.80;99.90;;;;;;4974260;28;20390;-76
2021/10/01 03:17:31;;;;;;;0.40;0.20;;;7.00;99.90;;;;;;4990906;28;20490;-76
2021/10/01 03:19:57;;;;;;;0.40;0.20;;;7.00;99.90;;;;;;4991952;28;20449;-76
2021/10/01 03:22:27;;;;;;;0.40;0.20;;;7.00;99.90;;;;;;4991167;28;20422;-76
2021/10/01 03:24:53;;;;;;;0.40;0.30;;;7.00;99.90;;;;;;4991841;28;20418;-75
2021/10/01 03:27:19;;;;;;;0.40;0.30;;;7.00;99.90;;;;;;4991239;28;20908;-76
2021/10/01 03:29:44;;;;;;;0.40;0.20;;;7.00;99.90;;;;;;4990580;28;20474;-76
2021/10/01 03:32:11;;;;;;;0.40;0.25;;;6.90;99.90;;;;;;4991947;28;20504;-76
2021/10/01 03:34:36;;;;;;;0.40;0.20;;;7.00;99.90;;;;;;4990914;28;20378;-76
2021/10/01 03:37:02;;;;;;;0.40;0.30;;;7.00;99.90;;;;;;4991749;28;20733;-74
2021/10/01 03:39:28;;;;;;;0.40;0.30;;;6.90;99.90;;;;;;4990607;28;20445;-75
2021/10/01 03:41:54;;;;;;;0.40;0.20;;;7.00;99.90;;;;;;4991562;28;20390;-75
2021/10/01 03:44:19;;;;;;;0.40;0.30;;;7.00;99.90;;;;;;4990108;28;20743;-75
2021/10/01 03:46:48;;;;;;;0.40;0.28;;;6.80;99.90;;;;;;4971253;28;20965;-75
2021/10/01 03:49:14;;;;;;;0.40;0.20;;;6.80;99.90;;;;;;4971911;28;20439;-74
2021/10/01 03:51:40;;;;;;;0.40;0.20;;;6.80;99.90;;;;;;4970989;28;20479;-74
2021/10/01 03:54:06;;;;;;;0.40;0.23;;;6.90;99.90;;;;;;4971511;28;20737;-74
2021/10/01 03:56:33;;;;;;;0.40;0.20;;;6.70;99.90;;;;;;4971194;28;20412;-74
2021/10/01 03:58:59;;;;;;;0.40;0.20;;;6.70;99.90;;;;;;4971259;28;20420;-74
2021/10/01 04:01:24;;;;;;;0.40;0.20;;;6.60;99.90;;;;;;4953765;28;20401;-75
2021/10/01 04:03:50;;;;;;;0.40;0.20;;;6.50;99.90;;;;;;4972193;28;20738;-74
2021/10/01 04:06:15;;;;;;;0.40;0.20;;;6.50;99.90;;;;;;4972134;28;20872;-75
2021/10/01 04:08:41;;;;;;;0.57;0.47;;;6.50;99.90;;;;;;4953771;28;20388;-75
2021/10/01 04:11:07;;;;;;;0.40;0.30;;;6.50;99.90;;;;;;4971886;28;20388;-75
2021/10/01 04:13:33;;;;;;;0.40;0.30;;;6.40;99.90;;;;;;4971156;28;20396;-75
2021/10/01 04:15:58;;;;;;;0.40;0.20;;;6.40;99.90;;;;;;4971929;28;20388;-75
2021/10/01 04:18:24;;;;;;;0.40;0.20;;;6.40;99.90;;;;;;4971191;28;20392;-75
2021/10/01 04:20:50;;;;;;;0.40;0.20;;;6.40;99.90;;;;;;4971818;28;20865;-74
2021/10/01 04:23:16;;;;;;;0.40;0.20;;;6.50;99.90;;;;;;4971936;28;20463;-74
2021/10/01 04:25:41;;;;;;;0.40;0.30;;;6.50;99.90;;;;;;4971139;28;20404;-75
2021/10/01 04:28:08;;;;;;;0.40;0.20;;;6.40;99.90;;;;;;4954398;28;20482;-74
2021/10/01 04:30:41;;;;;;;0.40;0.30;;;6.70;99.90;;;;;;4971095;28;20455;-75
2021/10/01 04:33:19;;;;;;;0.40;0.20;;;6.70;99.90;;;;;;4971849;28;20488;-75
2021/10/01 04:35:45;;;;;;;0.40;0.20;;;6.80;99.90;;;;;;4971430;28;20385;-74
2021/10/01 04:38:11;;;;;;;0.40;0.20;;;6.50;99.90;;;;;;4972010;28;20392;-75
2021/10/01 04:40:37;;;;;;;0.40;0.20;;;6.60;99.90;;;;;;4975145;28;20799;-75
2021/10/01 04:43:02;;;;;;;0.40;0.20;;;6.60;99.90;;;;;;4976144;28;20405;-74
2021/10/01 04:45:28;;;;;;;0.40;0.20;;;6.70;99.90;;;;;;4966574;28;20796;-74
2021/10/01 04:47:54;;;;;;;0.40;0.25;;;6.70;99.90;;;;;;4957843;28;20980;-74
2021/10/01 04:50:19;;;;;;;0.40;0.20;;;6.80;99.90;;;;;;4982473;28;20787;-75
2021/10/01 04:52:45;;;;;;;0.43;0.38;;;6.70;99.90;;;;;;4979094;28;20399;-75
2021/10/01 04:55:11;;;;;;;0.40;0.25;;;6.80;99.90;;;;;;4988820;28;20402;-78
2021/10/01 04:57:36;;;;;;;0.40;0.30;;;6.80;99.90;;;;;;4993456;28;20397;-77
2021/10/01 05:00:03;;;;;;;0.40;0.20;;;6.80;99.90;;;;;;4993334;28;20420;-79
2021/10/01 05:02:29;;;;;;;0.40;0.30;;;6.80;99.90;;;;;;4981597;28;20745;-74
2021/10/01 05:04:55;;;;;;;0.40;0.30;;;6.80;99.90;;;;;;4991997;28;20391;-78
2021/10/01 05:07:21;;;;;;;0.40;0.20;;;6.80;99.90;;;;;;4994598;28;20390;-77
2021/10/01 05:09:47;;;;;;;0.40;0.30;;;6.80;99.90;;;;;;4976005;28;20791;-77
2021/10/01 05:12:13;;;;;;;0.40;0.30;;;6.80;99.90;;;;;;4994325;28;20499;-78
2021/10/01 05:14:38;;;;;;;0.40;0.30;;;6.90;99.90;;;;;;4975924;28;20399;-78
2021/10/01 05:17:04;;;;;;;0.40;0.20;;;6.80;99.90;;;;;;4994056;28;20786;-78
2021/10/01 05:19:30;;;;;;;0.40;0.20;;;6.90;99.90;;;;;;4993419;28;20468;-80
2021/10/01 05:21:57;;;;;;;0.40;0.20;;;6.90;99.90;;;;;;4994263;28;20744;-78
2021/10/01 05:24:22;;;;;;;0.40;0.20;;;6.70;99.90;;;;;;4993830;28;20477;-78
2021/10/01 05:26:48;;;;;;;0.40;0.20;;;6.70;99.90;;;;;;4992731;28;20848;-79
2021/10/01 05:29:13;;;;;;;0.40;0.20;;;6.70;99.90;;;;;;4976090;28;20426;-77
2021/10/01 05:31:39;;;;;;;0.40;0.20;;;6.80;99.90;;;;;;4993309;28;20379;-78
2021/10/01 05:34:05;;;;;;;0.40;0.20;;;6.80;99.90;;;;;;4993938;28;20410;-78
2021/10/01 05:36:33;;;;;;;0.40;0.20;;;6.80;99.90;;;;;;4975610;28;20398;-79
2021/10/01 05:38:59;;;;;;;0.40;0.20;;;6.80;99.90;;;;;;4976186;28;20771;-76
2021/10/01 05:41:25;;;;;;;0.40;0.30;;;6.80;99.90;;;;;;4998136;28;20397;-78
2021/10/01 05:43:51;;;;;;;0.80;0.60;;;6.80;99.90;;;;;;4986911;28;20417;-76
2021/10/01 05:46:17;;;;;;;0.40;0.20;;;6.50;99.90;;;;;;4985955;28;20406;-76
2021/10/01 05:48:48;;;;;;;0.40;0.20;;;6.60;99.90;;;;;;4986287;28;20402;-76
2021/10/01 05:51:14;;;;;;;0.40;0.20;;;6.60;99.90;;;;;;4967939;28;20883;-77
2021/10/01 05:56:09;;;;;;;0.40;0.20;;;6.70;99.90;;;;;;4986147;28;20402;-77
2021/10/01 05:58:39;;;;;;;0.40;0.30;;;6.70;99.90;;;;;;4967011;28;20903;-76
2021/10/01 06:01:06;;;;;;;0.40;0.20;;;6.80;99.90;;;;;;4982728;28;20429;-76
2021/10/01 06:03:32;;;;;;;0.40;0.20;;;6.80;99.90;;;;;;4986663;28;20386;-76
2021/10/01 06:05:57;;;;;;;0.40;0.20;;;6.80;99.90;;;;;;4992108;28;20390;-77
2021/10/01 06:08:23;;;;;;;0.40;0.20;;;6.90;99.90;;;;;;4983543;28;20531;-76
2021/10/01 06:10:49;;;;;;;0.40;0.30;;;6.90;99.90;;;;;;4964887;28;20410;-76
2021/10/01 06:13:15;;;;;;;0.40;0.20;;;6.90;99.90;;;;;;4984732;28;20390;-76
2021/10/01 06:15:41;;;;;;;0.40;0.20;;;7.00;99.90;;;;;;4983213;28;20403;-76
2021/10/01 06:18:07;;;;;;;0.40;0.20;;;6.90;99.90;;;;;;4961768;28;20404;-76
2021/10/01 06:20:33;;;;;;;0.40;0.20;;;6.90;99.90;;;;;;4955903;28;20416;-77
2021/10/01 06:22:58;;;;;;;0.40;0.20;;;7.10;99.90;;;;;;4974462;28;20541;-76
2021/10/01 06:25:25;;;;;;;0.40;0.20;;;7.10;99.90;;;;;;4956244;28;20448;-76
2021/10/01 06:27:51;;;;;;;0.40;0.20;;;7.10;99.90;;;;;;4972795;28;20420;-76
2021/10/01 06:30:17;;;;;;;0.40;0.40;;;7.20;99.90;;;;;;4956299;28;20423;-76
2021/10/01 06:32:43;;;;;;;0.40;0.20;;;7.20;99.90;;;;;;4973488;28;20399;-76
2021/10/01 06:35:09;;;;;;;0.40;0.20;;;7.20;99.90;;;;;;4973835;28;20452;-76
2021/10/01 06:37:35;;;;;;;0.40;0.30;;;7.30;99.90;;;;;;4972839;28;20876;-77
2021/10/01 06:40:02;;;;;;;0.40;0.20;;;7.50;99.90;;;;;;4973403;28;20408;-76
2021/10/01 06:42:28;;;;;;;0.40;0.20;;;7.40;99.90;;;;;;4973127;28;20471;-77
2021/10/01 06:44:55;;;;;;;0.40;0.20;;;7.40;99.90;;;;;;4979205;28;20470;-76
2021/10/01 06:47:30;;;;;;;0.40;0.20;;;7.50;99.90;;;;;;4993048;28;20390;-77
2021/10/01 06:53:02;;;;;;;0.40;0.20;;;7.60;99.90;;;;;;4991898;28;20875;-77
2021/10/01 08:20:15;;;;;;;0.40;0.20;;;11.30;99.90;;;;;;4978309;28;20430;-74
2021/10/01 08:22:40;;;;;;;0.40;0.20;;;11.60;99.90;;;;;;4977585;28;20398;-75
2021/10/01 08:25:06;;;;;;;0.40;0.30;;;11.60;99.90;;;;;;4977847;28;20932;-75
2021/10/01 08:27:35;;;;;;;0.40;0.20;;;11.60;99.90;;;;;;4978330;28;20469;-75
2021/10/01 08:30:02;;;;;;;0.40;0.20;;;11.50;99.90;;;;;;4970082;28;20453;-74
2021/10/01 08:32:28;;;;;;;0.40;0.20;;;11.70;99.90;;;;;;4996756;28;20386;-75
2021/10/01 08:34:54;;;;;;;0.40;0.20;;;11.80;99.90;;;;;;4986885;28;20413;-75
2021/10/01 08:37:19;;;;;;;0.40;0.30;;;11.80;99.90;;;;;;4996841;28;20383;-75
2021/10/01 08:39:45;;;;;;;0.40;0.20;;;11.80;99.90;;;;;;4996318;28;20740;-74
2021/10/01 08:42:11;;;;;;;0.40;0.20;;;11.80;99.90;;;;;;4979415;28;20871;-75
2021/10/01 08:44:37;;;;;;;0.40;0.20;;;11.80;99.90;;;;;;4979025;28;20521;-75
2021/10/01 08:47:05;;;;;;;0.40;0.20;;;12.00;99.90;;;;;;4997958;28;20510;-75
2021/10/01 08:49:31;;;;;;;0.40;0.20;;;12.00;99.90;;;;;;4997963;28;20401;-74
2021/10/01 08:51:57;;;;;;;0.40;0.20;;;12.10;99.90;;;;;;4996181;28;20410;-75
2021/10/01 08:54:24;;;;;;;0.40;0.20;;;12.20;99.90;;;;;;4997532;28;20389;-74
2021/10/01 08:56:50;;;;;;;0.40;0.20;;;12.30;99.90;;;;;;4996428;28;20405;-74
2021/10/01 08:59:16;;;;;;;0.40;0.28;;;12.70;99.90;;;;;;4994565;28;20501;-75
2021/10/01 09:01:42;;;;;;;0.40;0.20;;;12.70;99.90;;;;;;4996106;28;20429;-75
2021/10/01 09:04:10;;;;;;;0.40;0.30;;;12.70;99.90;;;;;;4979576;28;20418;-75
2021/10/01 09:06:36;;;;;;;0.40;0.30;;;12.90;99.90;;;;;;4996894;28;20464;-77
2021/10/01 09:09:09;;;;;;;0.40;0.28;;;13.00;99.90;;;;;;4996879;28;20391;-75
2021/10/01 09:11:47;;;;;;;0.40;0.30;;;13.10;99.90;;;;;;4987964;28;20424;-75
2021/10/01 09:14:20;;;;;;;0.40;0.20;;;13.20;99.90;;;;;;4978025;28;20759;-75
2021/10/01 09:16:46;;;;;;;1.10;0.70;;;13.40;99.90;;;;;;4977448;28;20427;-75
2021/10/01 09:19:12;;;;;;;0.40;0.22;;;13.50;99.90;;;;;;4977312;28;20444;-75
2021/10/01 09:21:49;;;;;;;0.40;0.20;;;13.60;99.90;;;;;;4977445;28;20386;-77
2021/10/01 09:24:23;;;;;;;0.40;0.20;;;13.80;99.90;;;;;;4977666;28;20435;-75
2021/10/01 09:26:54;;;;;;;0.40;0.30;;;13.90;99.90;;;;;;4973156;28;20411;-76
2021/10/01 09:29:34;;;;;;;0.40;0.20;;;13.80;99.90;;;;;;4974123;28;20404;-75
2021/10/01 09:32:07;;;;;;;0.40;0.25;;;14.00;99.90;;;;;;4973614;28;21279;-74
2021/10/01 09:34:37;;;;;;;0.60;0.60;;;14.10;99.90;;;;;;4974200;28;20400;-75
2021/10/01 09:37:18;;;;;;;0.40;0.40;;;14.20;99.90;;;;;;4973908;28;20443;-75
2021/10/01 09:39:49;;;;;;;0.40;0.20;;;14.10;99.90;;;;;;4973594;28;20423;-75
2021/10/01 09:42:39;;;;;;;0.40;0.30;;;14.20;99.90;;;;;;4973956;28;20388;-74
2021/10/01 09:45:08;;;;;;;0.40;0.30;;;14.20;99.90;;;;;;4973903;28;20411;-74
2021/10/01 09:47:41;;;;;;;0.40;0.40;;;14.20;99.90;;;;;;4994040;28;20386;-75
2021/10/01 09:50:22;;;;;;;0.40;0.20;;;14.30;99.90;;;;;;4993520;28;20398;-75
2021/10/01 09:52:52;;;;;;;0.40;0.20;;;14.40;99.90;;;;;;4993027;28;20397;-74
2021/10/01 09:55:22;;;;;;;0.40;0.20;;;14.50;99.40;;;;;;4989186;28;20396;-73
2021/10/01 09:58:00;;;;;;;0.70;0.50;;;14.50;99.20;;;;;;4973657;28;20463;-74
2021/10/01 10:00:37;;;;;;;0.40;0.30;;;14.50;99.90;;;;;;4973778;28;20416;-74
2021/10/01 10:03:03;;;;;;;0.60;0.60;;;14.60;99.60;;;;;;4973836;28;20475;-73
2021/10/01 10:05:54;;;;;;;0.40;0.20;;;14.70;99.10;;;;;;4974002;28;20400;-74
2021/10/01 10:08:35;;;;;;;0.40;0.20;;;14.80;99.00;;;;;;4974067;28;20396;-73
2021/10/01 10:11:16;;;;;;;0.40;0.30;;;14.90;98.80;;;;;;4956528;28;20422;-74
2021/10/01 10:13:50;;;;;;;0.40;0.20;;;15.10;98.40;;;;;;4973711;28;20411;-75
2021/10/01 10:16:28;;;;;;;0.40;0.20;;;15.10;98.60;;;;;;4974508;28;20417;-74
2021/10/01 10:19:06;;;;;;;0.40;0.30;;;15.20;98.50;;;;;;4973089;28;20773;-74
2021/10/01 10:21:33;;;;;;;0.40;0.20;;;15.50;98.60;;;;;;4973803;28;20736;-74
2021/10/01 10:23:59;;;;;;;0.40;0.25;;;15.50;98.30;;;;;;4973535;28;20666;-74
2021/10/01 10:26:25;;;;;;;0.40;0.30;;;15.70;98.00;;;;;;4974209;28;20423;-74
2021/10/01 10:28:53;;;;;;;0.40;0.20;;;15.70;97.80;;;;;;4973628;28;20451;-74
2021/10/01 10:31:19;;;;;;;0.40;0.30;;;15.80;98.10;;;;;;4956824;28;20487;-74
2021/10/01 10:33:48;;;;;;;0.40;0.30;;;15.90;96.60;;;;;;4973356;28;20392;-75
2021/10/01 10:36:37;;;;;;;0.40;0.30;;;16.10;96.60;;;;;;4974275;28;20451;-74
2021/10/01 10:39:12;;;;;;;0.40;0.20;;;16.30;96.20;;;;;;4973225;28;20754;-73
2021/10/01 10:42:00;;;;;;;0.40;0.20;;;16.50;95.60;;;;;;4973981;28;20396;-73
2021/10/01 10:44:46;;;;;;;2.50;0.90;;;16.50;95.30;;;;;;4975615;28;20388;-74
2021/10/01 10:47:39;;;;;;;0.40;0.30;;;16.60;95.20;;;;;;4993299;28;20383;-73
2021/10/01 10:50:23;;;;;;;0.40;0.30;;;16.80;94.60;;;;;;4992376;28;20386;-73
2021/10/01 10:55:35;;;;;;;0.40;0.30;;;17.20;93.10;;;;;;4993257;28;20402;-74
2021/10/01 10:58:23;;;;;;;0.40;0.20;;;17.20;94.00;;;;;;4992534;28;20692;-75
2021/10/01 11:00:55;;;;;;;0.40;0.30;;;17.50;93.10;;;;;;4992001;28;20476;-74
2021/10/01 11:03:34;;;;;;;0.40;0.30;;;17.80;92.90;;;;;;4975865;28;20737;-74
2021/10/01 11:06:13;;;;;;;0.40;0.20;;;17.90;91.30;;;;;;4992353;28;20419;-74
2021/10/01 11:08:54;;;;;;;0.40;0.30;;;18.40;90.80;;;;;;4992840;28;20421;-74
2021/10/01 11:11:32;;;;;;;0.40;0.30;;;18.50;90.60;;;;;;4992999;28;20390;-74
2021/10/01 11:14:16;;;;;;;0.40;0.20;;;18.80;90.50;;;;;;4992108;28;20820;-74
2021/10/01 11:17:02;;;;;;;0.40;0.30;;;18.60;88.90;;;;;;4992523;28;20430;-75
2021/10/01 11:19:36;;;;;;;0.40;0.30;;;19.20;90.00;;;;;;4992068;28;20488;-74
2021/10/01 11:22:31;;;;;;;0.40;0.30;;;20.30;84.10;;;;;;4992059;28;21036;-74
2021/10/01 11:24:59;;;;;;;0.40;0.30;;;21.10;81.60;;;;;;4992005;28;20394;-74
2021/10/01 11:27:24;;;;;;;0.40;0.20;;;21.00;78.30;;;;;;4992063;28;20414;-74
2021/10/01 11:29:50;;;;;;;0.40;0.20;;;22.00;73.60;;;;;;4991436;28;20391;-74
2021/10/01 11:32:24;;;;;;;0.40;0.30;;;22.50;71.10;;;;;;4992498;28;20421;-74
2021/10/01 11:35:00;;;;;;;0.40;0.20;;;22.20;73.30;;;;;;4991949;28;20389;-75
2021/10/01 11:37:27;;;;;;;0.40;0.25;;;21.80;72.40;;;;;;4992485;28;20382;-74
2021/10/01 11:39:56;;;;;;;0.40;0.20;;;23.50;70.70;;;;;;4991655;28;20510;-74
2021/10/01 11:42:37;;;;;;;0.40;0.20;;;23.60;69.50;;;;;;4992391;28;20393;-73
2021/10/01 11:45:20;;;;;;;0.40;0.20;;;23.30;66.90;;;;;;4984810;28;20741;-74
2021/10/01 11:48:06;;;;;;;0.40;0.20;;;23.50;67.80;;;;;;4972425;28;20431;-74
2021/10/01 11:50:44;;;;;;;0.40;0.30;;;23.80;66.40;;;;;;4972263;28;20392;-75
2021/10/01 11:53:23;;;;;;;1.30;0.60;;;22.80;69.90;;;;;;4972573;28;20399;-75
2021/10/01 11:56:02;;;;;;;0.40;0.30;;;22.30;69.90;;;;;;4972264;28;20408;-74
2021/10/01 11:58:30;;;;;;;0.40;0.20;;;22.10;67.70;;;;;;4972763;28;20407;-75
2021/10/01 12:01:07;;;;;;;0.40;0.20;;;22.80;73.60;;;;;;4972082;28;20408;-74
2021/10/01 12:03:33;;;;;;;0.40;0.20;;;23.20;71.60;;;;;;4972753;28;20380;-74
2021/10/01 12:05:58;;;;;;;0.40;0.30;;;23.50;70.10;;;;;;4972128;28;20442;-74
2021/10/01 12:08:25;;;;;;;0.40;0.20;;;23.20;67.90;;;;;;4972639;28;20869;-74
2021/10/01 12:10:55;;;;;;;0.40;0.30;;;23.50;67.00;;;;;;4972008;28;20491;-74
2021/10/01 12:13:26;;;;;;;0.40;0.20;;;23.40;68.90;;;;;;4972693;28;20383;-74
2021/10/01 12:16:04;;;;;;;0.40;0.20;;;22.10;68.60;;;;;;4971947;28;20475;-74
2021/10/01 12:18:44;;;;;;;0.40;0.30;;;22.70;72.70;;;;;;4972523;28;20388;-74
2021/10/01 12:21:18;;;;;;;0.40;0.20;;;23.30;71.70;;;;;;4971883;28;20404;-75
2021/10/01 12:24:16;;;;;;;0.40;0.20;;;23.00;73.50;;;;;;4972292;28;20420;-73
2021/10/01 12:26:44;;;;;;;0.40;0.20;;;22.50;71.90;;;;;;4964976;28;20475;-74
2021/10/01 12:29:14;;;;;;;0.40;0.30;;;22.90;79.40;;;;;;4972155;28;20397;-73
2021/10/01 12:31:42;;;;;;;0.40;0.30;;;23.10;76.50;;;;;;4972308;28;20398;-72
2021/10/01 12:34:14;;;;;;;0.40;0.20;;;21.50;78.00;;;;;;4971611;28;20399;-73
2021/10/01 12:36:42;;;;;;;0.40;0.30;;;22.50;78.20;;;;;;4972448;28;20474;-73
2021/10/01 12:39:08;;;;;;;0.40;0.20;;;22.60;80.20;;;;;;4971620;28;20403;-73
2021/10/01 12:41:35;;;;;;;0.40;0.30;;;23.00;77.80;;;;;;4972326;28;20391;-73
2021/10/01 12:44:03;;;;;;;0.40;0.20;;;22.70;77.20;;;;;;4971896;28;20388;-72
2021/10/01 12:46:39;;;;;;;0.40;0.30;;;22.70;77.90;;;;;;4972186;28;20380;-72
2021/10/01 12:49:16;;;;;;;0.40;0.30;;;22.80;76.40;;;;;;4971410;28;20399;-72
2021/10/01 12:51:42;;;;;;;0.40;0.20;;;22.90;75.90;;;;;;4972195;28;20384;-73
2021/10/01 12:54:22;;;;;;;0.40;0.30;;;23.20;75.30;;;;;;4971617;28;20587;-73
2021/10/01 12:57:07;;;;;;;0.40;0.28;;;22.90;77.10;;;;;;4972418;28;20478;-73
2021/10/01 12:59:53;;;;;;;0.40;0.30;;;23.00;77.90;;;;;;4972416;28;20548;-73
2021/10/01 13:02:39;;;;;;;0.40;0.20;;;23.30;75.90;;;;;;4975021;28;20397;-73
2021/10/01 13:05:09;;;;;;;0.40;0.20;;;22.80;72.80;;;;;;4975145;28;20400;-72
2021/10/01 13:07:43;;;;;;;0.40;0.30;;;23.10;76.20;;;;;;4975965;28;20439;-73
2021/10/01 13:10:15;;;;;;;0.40;0.30;;;23.60;75.70;;;;;;4975075;28;20519;-72
2021/10/01 13:12:55;;;;;;;0.40;0.30;;;23.40;75.60;;;;;;4975710;28;20387;-73
2021/10/01 13:15:37;;;;;;;0.40;0.25;;;23.50;73.00;;;;;;4975158;28;20394;-73
2021/10/01 13:21:08;;;;;;;0.40;0.30;;;23.90;74.50;;;;;;4975449;28;20493;-73
2021/10/01 13:23:48;;;;;;;0.40;0.25;;;24.60;71.00;;;;;;4975764;28;20557;-73
2021/10/01 13:26:25;;;;;;;0.40;0.30;;;24.70;71.10;;;;;;4974102;28;20428;-73
2021/10/01 13:28:54;;;;;;;0.40;0.30;;;24.70;69.80;;;;;;4974452;28;20400;-74
2021/10/01 13:31:22;;;;;;;0.40;0.20;;;24.60;70.00;;;;;;4975267;28;20443;-73
2021/10/01 13:33:51;;;;;;;0.40;0.30;;;24.00;69.00;;;;;;4975007;28;20416;-73
2021/10/01 13:36:18;;;;;;;0.50;0.37;;;23.60;72.60;;;;;;4974890;28;20392;-72
2021/10/01 13:38:45;;;;;;;0.40;0.20;;;23.20;71.20;;;;;;4974818;28;20427;-74
2021/10/01 13:41:13;;;;;;;0.40;0.25;;;23.40;72.30;;;;;;4974388;28;20423;-73
2021/10/01 13:43:40;;;;;;;0.40;0.30;;;23.60;72.30;;;;;;4975069;28;20384;-72
2021/10/01 13:46:07;;;;;;;0.40;0.20;;;23.90;72.20;;;;;;4989171;28;20425;-72
2021/10/01 13:48:32;;;;;;;0.40;0.30;;;23.40;71.80;;;;;;4994365;28;20469;-74
2021/10/01 13:50:59;;;;;;;0.40;0.30;;;23.50;74.10;;;;;;4976288;28;20482;-73
2021/10/01 13:53:25;;;;;;;0.40;0.30;;;23.50;72.00;;;;;;4994386;28;20485;-74
2021/10/01 13:55:51;;;;;;;0.40;0.20;;;23.40;73.50;;;;;;4994289;28;20947;-74
2021/10/01 13:58:17;;;;;;;0.40;0.20;;;23.90;72.20;;;;;;4994061;28;20393;-75
2021/10/01 14:00:43;;;;;;;0.40;0.30;;;24.00;75.60;;;;;;4994393;28;20410;-73
2021/10/01 14:03:08;;;;;;;0.40;0.20;;;24.00;71.90;;;;;;4976182;28;20875;-74
2021/10/01 14:05:34;;;;;;;0.40;0.30;;;23.90;71.30;;;;;;4994106;28;20859;-75
2021/10/01 14:08:00;;;;;;;0.40;0.30;;;23.20;72.00;;;;;;4993304;28;20791;-75
2021/10/01 14:10:28;;;;;;;0.40;0.30;;;23.50;73.80;;;;;;4994129;28;20386;-73
2021/10/01 14:12:54;;;;;;;0.50;0.40;;;23.50;72.10;;;;;;4992759;28;20391;-75
2021/10/01 14:15:22;;;;;;;0.40;0.30;;;23.50;73.10;;;;;;4993640;28;20720;-75
2021/10/01 14:17:48;;;;;;;0.40;0.20;;;23.50;72.70;;;;;;4993624;28;20392;-75
2021/10/01 14:20:16;;;;;;;0.40;0.30;;;23.80;73.40;;;;;;4975644;28;20812;-74
2021/10/01 14:22:43;;;;;;;0.40;0.30;;;23.70;72.00;;;;;;4993959;28;20390;-73
2021/10/01 14:25:14;;;;;;;0.40;0.20;;;23.50;74.10;;;;;;4992941;28;20390;-75
2021/10/01 14:27:40;;;;;;;0.40;0.30;;;23.50;72.40;;;;;;4993796;28;20736;-74
2021/10/01 14:30:09;;;;;;;0.40;0.30;;;23.50;72.50;;;;;;4993019;28;20399;-77
2021/10/01 14:32:35;;;;;;;0.40;0.20;;;23.20;74.80;;;;;;4993599;28;20394;-75
2021/10/01 14:35:01;;;;;;;0.40;0.30;;;23.30;74.40;;;;;;4993034;28;20744;-76
2021/10/01 14:37:27;;;;;;;0.40;0.25;;;23.30;72.60;;;;;;4993398;28;20394;-74
2021/10/01 14:39:53;;;;;;;0.40;0.30;;;23.20;72.90;;;;;;4993785;28;20410;-74
2021/10/01 14:42:19;;;;;;;0.40;0.30;;;23.30;74.30;;;;;;4992815;28;20390;-74
2021/10/01 14:44:46;;;;;;;0.40;0.30;;;23.50;72.50;;;;;;4993342;28;20401;-74